createdAt,value
2018-06-27T00:02:10.141Z,102236.31
2018-06-27T00:04:37.209Z,102251.53
2018-06-27T00:07:04.193Z,102247.20
2018-06-27T00:09:31.407Z,102232.23
2018-06-27T00:11:58.389Z,102232.47
2018-06-27T00:14:25.380Z,102233.41
2018-06-27T00:16:52.381Z,102243.25
2018-06-27T00:19:19.407Z,102240.37
2018-06-27T00:21:46.663Z,102250.91
2018-06-27T00:24:13.663Z,102247.08
2018-06-27T00:26:40.694Z,102241.34
2018-06-27T00:29:07.673Z,102247.21
2018-06-27T00:31:35.097Z,102255.47
2018-06-27T00:34:02.118Z,102244.20
2018-06-27T00:36:29.214Z,102243.83
2018-06-27T00:38:56.214Z,102246.58
2018-06-27T00:41:23.905Z,102242.39
2018-06-27T00:43:50.929Z,102250.77
2018-06-27T00:46:17.942Z,102242.14
2018-06-27T00:48:44.965Z,102253.76
2018-06-27T00:51:11.995Z,102249.56
2018-06-27T00:53:44.670Z,102243.58
2018-06-27T00:56:11.673Z,102245.12
2018-06-27T00:58:38.641Z,102245.62
2018-06-27T01:01:05.634Z,102247.04
2018-06-27T01:03:32.609Z,102236.02
2018-06-27T01:05:59.636Z,102242.02
2018-06-27T01:08:26.585Z,102240.59
2018-06-27T01:10:53.589Z,102239.98
2018-06-27T01:13:20.559Z,102244.78
2018-06-27T01:15:47.569Z,102245.25
2018-06-27T01:18:14.538Z,102245.38
2018-06-27T01:20:41.561Z,102253.37
2018-06-27T01:23:08.561Z,102251.72
2018-06-27T01:25:35.545Z,102253.85
2018-06-27T01:28:02.537Z,102256.75
2018-06-27T01:30:29.529Z,102248.22
2018-06-27T01:32:56.491Z,102252.30
2018-06-27T01:35:23.482Z,102246.54
2018-06-27T01:37:50.433Z,102253.69
2018-06-27T01:40:17.414Z,102246.48
2018-06-27T01:42:44.422Z,102251.63
2018-06-27T01:45:11.389Z,102250.68
2018-06-27T01:47:38.413Z,102245.22
2018-06-27T01:50:05.389Z,102242.68
2018-06-27T01:52:32.846Z,102251.75
2018-06-27T01:54:59.809Z,102253.53
2018-06-27T01:57:27.133Z,102257.73
2018-06-27T01:59:54.222Z,102253.78
2018-06-27T02:02:21.234Z,102250.77
2018-06-27T02:04:48.209Z,102268.75
2018-06-27T02:07:15.181Z,102268.38
2018-06-27T02:09:42.149Z,102270.17
2018-06-27T02:12:09.129Z,102271.70
2018-06-27T02:14:36.094Z,102267.75
2018-06-27T02:17:03.102Z,102266.81
2018-06-27T02:19:30.077Z,102275.31
2018-06-27T02:21:57.148Z,102267.63
2018-06-27T02:24:24.124Z,102261.73
2018-06-27T02:26:51.161Z,102261.39
2018-06-27T02:29:18.218Z,102257.28
2018-06-27T02:31:45.393Z,102259.11
2018-06-27T02:34:12.365Z,102261.14
2018-06-27T02:36:39.479Z,102258.52
2018-06-27T02:39:07.974Z,102264.62
2018-06-27T02:41:35.625Z,102267.63
2018-06-27T02:44:02.609Z,102263.45
2018-06-27T02:46:29.674Z,102272.80
2018-06-27T02:48:56.637Z,102269.70
2018-06-27T02:51:23.645Z,102267.66
2018-06-27T02:53:50.625Z,102268.97
2018-06-27T02:56:17.599Z,102269.12
2018-06-27T02:58:44.577Z,102276.93
2018-06-27T03:01:11.583Z,102271.04
2018-06-27T03:03:38.566Z,102274.14
2018-06-27T03:06:05.601Z,102275.55
2018-06-27T03:08:32.593Z,102274.61
2018-06-27T03:10:59.558Z,102278.25
2018-06-27T03:13:26.530Z,102273.60
2018-06-27T03:15:56.345Z,102277.08
2018-06-27T03:18:23.333Z,102279.39
2018-06-27T03:20:50.297Z,102274.22
2018-06-27T03:23:17.586Z,102274.84
2018-06-27T03:25:44.602Z,102266.33
2018-06-27T03:28:11.617Z,102274.86
2018-06-27T03:30:38.581Z,102279.02
2018-06-27T03:33:05.622Z,102281.92
2018-06-27T03:35:32.661Z,102280.13
2018-06-27T03:37:59.641Z,102285.61
2018-06-27T03:40:26.605Z,102283.00
2018-06-27T03:42:53.589Z,102274.73
2018-06-27T03:45:20.569Z,102282.80
2018-06-27T03:47:47.764Z,102279.32
2018-06-27T03:50:14.778Z,102278.59
2018-06-27T03:52:44.661Z,102276.81
2018-06-27T03:55:11.665Z,102277.54
2018-06-27T03:57:38.737Z,102277.55
2018-06-27T04:00:05.677Z,102283.05
2018-06-27T04:02:32.657Z,102281.13
2018-06-27T04:04:59.631Z,102286.17
2018-06-27T04:07:26.609Z,102282.09
2018-06-27T04:09:53.585Z,102272.49
2018-06-27T04:12:20.548Z,102281.87
2018-06-27T04:14:47.501Z,102282.82
2018-06-27T04:17:14.593Z,102293.61
2018-06-27T04:19:41.605Z,102286.66
2018-06-27T04:22:08.572Z,102290.13
2018-06-27T04:24:35.553Z,102284.86
2018-06-27T04:27:02.521Z,102290.62
2018-06-27T04:29:29.539Z,102292.05
2018-06-27T04:31:56.517Z,102295.33
2018-06-27T04:34:23.601Z,102295.29
2018-06-27T04:36:50.589Z,102297.80
2018-06-27T04:39:17.552Z,102300.05
2018-06-27T04:41:44.526Z,102302.31
2018-06-27T04:44:11.721Z,102301.73
2018-06-27T04:46:38.873Z,102311.56
2018-06-27T04:49:06.106Z,102305.33
2018-06-27T04:51:33.539Z,102295.84
2018-06-27T04:54:00.557Z,102299.75
2018-06-27T04:56:27.569Z,102294.30
2018-06-27T04:58:54.569Z,102301.50
2018-06-27T05:01:21.569Z,102303.64
2018-06-27T05:03:48.605Z,102300.41
2018-06-27T05:06:15.609Z,102303.39
2018-06-27T05:08:42.605Z,102301.19
2018-06-27T05:11:09.601Z,102304.06
2018-06-27T05:13:36.595Z,102305.68
2018-06-27T05:16:03.678Z,102312.15
2018-06-27T05:18:30.596Z,102315.63
2018-06-27T05:20:57.565Z,102313.44
2018-06-27T05:23:24.547Z,102313.91
2018-06-27T05:25:51.523Z,102309.05
2018-06-27T05:28:18.541Z,102318.98
2018-06-27T05:30:45.498Z,102311.49
2018-06-27T05:33:12.541Z,102305.66
2018-06-27T05:35:39.507Z,102316.03
2018-06-27T05:38:06.510Z,102310.08
2018-06-27T05:40:33.469Z,102313.13
2018-06-27T05:43:00.475Z,102310.73
2018-06-27T05:45:27.469Z,102316.91
2018-06-27T05:47:54.428Z,102315.96
2018-06-27T05:50:21.416Z,102311.98
2018-06-27T05:52:48.386Z,102313.81
2018-06-27T05:55:15.369Z,102326.42
2018-06-27T05:57:42.337Z,102323.25
2018-06-27T06:00:11.450Z,102322.20
2018-06-27T06:02:38.415Z,102326.81
2018-06-27T06:05:05.429Z,102321.95
2018-06-27T06:07:32.423Z,102327.73
2018-06-27T06:09:59.430Z,102328.79
2018-06-27T06:12:26.468Z,102325.66
2018-06-27T06:14:53.984Z,102330.48
2018-06-27T06:17:21.261Z,102326.98
2018-06-27T06:19:48.339Z,102320.56
2018-06-27T06:22:15.230Z,102333.61
2018-06-27T06:24:43.772Z,102338.22
2018-06-27T06:27:11.886Z,102333.77
2018-06-27T06:29:38.909Z,102332.22
2018-06-27T06:32:06.256Z,102337.58
2018-06-27T06:34:33.189Z,102333.42
2018-06-27T06:37:00.154Z,102329.92
2018-06-27T06:39:27.118Z,102329.17
2018-06-27T06:41:54.126Z,102333.98
2018-06-27T06:44:21.097Z,102334.14
2018-06-27T06:46:48.066Z,102334.75
2018-06-27T06:49:15.113Z,102329.92
2018-06-27T06:51:42.105Z,102341.02
2018-06-27T06:54:09.086Z,102340.83
2018-06-27T06:56:36.062Z,102345.52
2018-06-27T06:59:03.093Z,102352.89
2018-06-27T07:01:30.078Z,102348.13
2018-06-27T07:03:57.080Z,102344.25
2018-06-27T07:06:24.034Z,102340.39
2018-06-27T07:08:51.301Z,102349.17
2018-06-27T07:11:18.463Z,102360.48
2018-06-27T07:13:45.301Z,102355.81
2018-06-27T07:16:12.469Z,102363.34
2018-06-27T07:18:39.438Z,102359.89
2018-06-27T07:21:06.466Z,102364.84
2018-06-27T07:23:34.201Z,102367.16
2018-06-27T07:26:01.277Z,102365.64
2018-06-27T07:28:28.343Z,102361.19
2018-06-27T07:30:55.366Z,102366.99
2018-06-27T07:33:22.402Z,102369.61
2018-06-27T07:35:49.419Z,102370.53
2018-06-27T07:38:16.337Z,102362.88
2018-06-27T07:40:43.330Z,102360.52
2018-06-27T07:43:10.289Z,102364.50
2018-06-27T07:45:37.273Z,102365.64
2018-06-27T07:48:04.257Z,102361.84
2018-06-27T07:50:31.265Z,102355.57
2018-06-27T07:52:58.253Z,102361.27
2018-06-27T07:55:25.209Z,102356.33
2018-06-27T07:57:52.174Z,102349.08
2018-06-27T08:00:19.370Z,102354.11
2018-06-27T08:02:46.413Z,102355.50
2018-06-27T08:05:13.445Z,102348.56
2018-06-27T08:07:40.437Z,102356.27
2018-06-27T08:10:07.389Z,102356.33
2018-06-27T08:12:34.529Z,102358.53
2018-06-27T08:15:01.497Z,102356.72
2018-06-27T08:17:28.453Z,102353.66
2018-06-27T08:19:55.586Z,102360.69
2018-06-27T08:22:22.837Z,102360.58
2018-06-27T08:24:49.845Z,102364.66
2018-06-27T08:27:16.840Z,102365.20
2018-06-27T08:29:43.809Z,102368.45
2018-06-27T08:32:10.802Z,102362.66
2018-06-27T08:34:37.782Z,102362.13
2018-06-27T08:37:04.843Z,102364.20
2018-06-27T08:39:31.806Z,102371.56
2018-06-27T08:41:58.793Z,102358.25
2018-06-27T08:44:25.804Z,102360.27
2018-06-27T08:46:52.866Z,102355.45
2018-06-27T08:49:19.826Z,102358.31
2018-06-27T08:51:46.874Z,102355.78
2018-06-27T08:54:13.835Z,102351.30
2018-06-27T08:56:40.865Z,102349.60
2018-06-27T08:59:07.850Z,102349.94
2018-06-27T09:01:34.854Z,102352.45
2018-06-27T09:04:01.817Z,102343.94
2018-06-27T09:06:28.806Z,102339.94
2018-06-27T09:08:55.893Z,102340.59
2018-06-27T09:11:22.905Z,102334.95
2018-06-27T09:13:49.889Z,102341.78
2018-06-27T09:16:17.133Z,102342.29
2018-06-27T09:18:44.222Z,102347.61
2018-06-27T09:21:11.190Z,102343.27
2018-06-27T09:23:38.213Z,102341.28
2018-06-27T09:26:05.181Z,102347.14
2018-06-27T09:28:32.266Z,102341.30
2018-06-27T09:30:59.337Z,102342.63
2018-06-27T09:33:26.334Z,102343.62
2018-06-27T09:35:53.330Z,102344.27
2018-06-27T09:38:20.317Z,102341.25
2018-06-27T09:40:47.445Z,102336.93
2018-06-27T09:43:15.426Z,102339.76
2018-06-27T09:45:42.445Z,102335.42
2018-06-27T09:48:09.510Z,102334.26
2018-06-27T09:50:36.642Z,102334.91
2018-06-27T09:53:03.642Z,102330.70
2018-06-27T09:55:30.649Z,102334.52
2018-06-27T09:57:57.672Z,102329.13
2018-06-27T10:00:30.385Z,102330.45
2018-06-27T10:02:57.417Z,102329.70
2018-06-27T10:05:24.435Z,102326.34
2018-06-27T10:07:51.630Z,102329.97
2018-06-27T10:10:18.594Z,102320.57
2018-06-27T10:12:45.601Z,102321.48
2018-06-27T10:15:12.609Z,102320.11
2018-06-27T10:17:39.614Z,102317.38
2018-06-27T10:20:07.213Z,102314.44
2018-06-27T10:22:34.198Z,102320.93
2018-06-27T10:25:01.170Z,102312.23
2018-06-27T10:27:28.278Z,102311.61
2018-06-27T10:29:55.245Z,102312.16
2018-06-27T10:32:22.237Z,102314.98
2018-06-27T10:34:49.279Z,102307.38
2018-06-27T10:37:16.254Z,102313.48
2018-06-27T10:39:43.299Z,102309.08
2018-06-27T10:42:10.310Z,102310.46
2018-06-27T10:44:37.384Z,102309.45
2018-06-27T10:47:04.533Z,102313.45
2018-06-27T10:49:31.517Z,102306.90
2018-06-27T10:51:58.498Z,102309.55
2018-06-27T10:54:25.501Z,102297.91
2018-06-27T10:56:52.486Z,102306.52
2018-06-27T10:59:19.461Z,102304.78
2018-06-27T11:01:46.570Z,102299.05
2018-06-27T11:04:13.586Z,102301.66
2018-06-27T11:06:40.553Z,102293.41
2018-06-27T11:09:08.183Z,102295.66
2018-06-27T11:11:35.166Z,102296.43
2018-06-27T11:14:02.213Z,102295.88
2018-06-27T11:16:29.197Z,102292.06
2018-06-27T11:18:56.190Z,102286.67
2018-06-27T11:21:23.177Z,102285.83
2018-06-27T11:23:50.202Z,102284.16
2018-06-27T11:26:17.165Z,102290.46
2018-06-27T11:28:44.137Z,102288.63
2018-06-27T11:31:11.098Z,102287.02
2018-06-27T11:33:38.077Z,102281.65
2018-06-27T11:36:05.074Z,102280.51
2018-06-27T11:38:32.112Z,102279.60
2018-06-27T11:40:59.052Z,102280.84
2018-06-27T11:43:26.038Z,102276.30
2018-06-27T11:45:53.010Z,102269.59
2018-06-27T11:48:20.160Z,102266.67
2018-06-27T11:50:47.149Z,102280.62
2018-06-27T11:53:14.173Z,102269.75
2018-06-27T11:55:41.100Z,102272.70
2018-06-27T11:58:09.085Z,102264.77
2018-06-27T12:00:36.070Z,102265.48
2018-06-27T12:03:03.065Z,102270.45
2018-06-27T12:05:30.042Z,102263.79
2018-06-27T12:07:56.997Z,102258.23
2018-06-27T12:10:24.014Z,102269.86
2018-06-27T12:12:51.042Z,102257.41
2018-06-27T12:15:18.053Z,102256.15
2018-06-27T12:17:45.022Z,102255.48
2018-06-27T12:20:12.163Z,102254.77
2018-06-27T12:22:39.138Z,102259.97
2018-06-27T12:25:06.474Z,102248.90
2018-06-27T12:27:33.505Z,102257.03
2018-06-27T12:30:00.627Z,102254.80
2018-06-27T12:32:27.646Z,102255.11
2018-06-27T12:34:54.633Z,102246.67
2018-06-27T12:37:21.633Z,102251.61
2018-06-27T12:39:48.614Z,102253.13
2018-06-27T12:42:15.592Z,102244.93
2018-06-27T12:44:42.625Z,102243.63
2018-06-27T12:47:09.686Z,102243.63
2018-06-27T12:49:36.666Z,102234.89
2018-06-27T12:52:03.660Z,102232.84
2018-06-27T12:54:30.678Z,102233.59
2018-06-27T12:56:57.657Z,102229.38
2018-06-27T12:59:24.757Z,102229.87
2018-06-27T13:01:51.750Z,102212.05
2018-06-27T13:04:18.718Z,102223.39
2018-06-27T13:06:45.736Z,102224.61
2018-06-27T13:09:12.925Z,102220.97
2018-06-27T13:11:40.913Z,102220.84
2018-06-27T13:14:08.178Z,102215.48
2018-06-27T13:16:35.520Z,102218.52
2018-06-27T13:19:02.534Z,102216.70
2018-06-27T13:21:29.581Z,102222.94
2018-06-27T13:23:56.571Z,102216.10
2018-06-27T13:26:23.631Z,102221.53
2018-06-27T13:28:50.630Z,102214.48
2018-06-27T13:31:17.646Z,102208.27
2018-06-27T13:33:44.701Z,102203.25
2018-06-27T13:36:11.834Z,102201.53
2018-06-27T13:38:38.821Z,102204.71
2018-06-27T13:41:07.395Z,102203.40
2018-06-27T13:43:34.449Z,102201.80
2018-06-27T13:46:01.474Z,102200.31
2018-06-27T13:48:28.458Z,102202.28
2018-06-27T13:50:55.440Z,102203.59
2018-06-27T13:53:22.442Z,102200.72
2018-06-27T13:55:49.421Z,102198.02
2018-06-27T13:58:16.433Z,102185.16
2018-06-27T14:00:43.519Z,102196.30
2018-06-27T14:03:10.537Z,102192.34
2018-06-27T14:05:37.562Z,102189.86
2018-06-27T14:08:04.921Z,102201.33
2018-06-27T14:10:31.910Z,102194.71
2018-06-27T14:12:58.870Z,102185.81
2018-06-27T14:15:25.845Z,102183.23
2018-06-27T14:17:52.830Z,102180.78
2018-06-27T14:20:19.821Z,102178.03
2018-06-27T14:22:46.802Z,102182.31
2018-06-27T14:25:14.042Z,102178.32
2018-06-27T14:27:41.041Z,102189.42
2018-06-27T14:30:08.855Z,102182.11
2018-06-27T14:32:35.867Z,102171.31
2018-06-27T14:35:02.903Z,102179.16
2018-06-27T14:37:29.913Z,102175.80
2018-06-27T14:39:56.921Z,102175.91
2018-06-27T14:42:23.902Z,102176.20
2018-06-27T14:44:50.893Z,102168.06
2018-06-27T14:47:17.881Z,102169.63
2018-06-27T14:49:44.859Z,102170.98
2018-06-27T14:52:11.865Z,102174.97
2018-06-27T14:54:38.838Z,102174.97
2018-06-27T14:57:05.895Z,102174.12
2018-06-27T14:59:32.899Z,102167.50
2018-06-27T15:01:59.857Z,102164.75
2018-06-27T15:04:26.857Z,102160.73
2018-06-27T15:06:53.861Z,102163.98
2018-06-27T15:09:20.866Z,102164.31
2018-06-27T15:11:47.849Z,102159.04
2018-06-27T15:14:14.833Z,102162.28
2018-06-27T15:16:41.925Z,102159.62
2018-06-27T15:19:09.249Z,102158.39
2018-06-27T15:21:36.253Z,102153.62
2018-06-27T15:24:03.250Z,102153.88
2018-06-27T15:26:32.441Z,102150.88
2018-06-27T15:29:00.130Z,102152.75
2018-06-27T15:31:27.207Z,102154.78
2018-06-27T15:33:54.712Z,102136.52
2018-06-27T15:36:21.777Z,102138.94
2018-06-27T15:38:48.760Z,102137.67
2018-06-27T15:41:15.763Z,102134.23
2018-06-27T15:43:42.749Z,102132.06
2018-06-27T15:46:09.764Z,102136.87
2018-06-27T15:48:36.775Z,102132.28
2018-06-27T15:51:03.773Z,102135.17
2018-06-27T15:53:30.741Z,102131.90
2018-06-27T15:55:57.789Z,102132.45
2018-06-27T15:58:24.829Z,102139.46
2018-06-27T16:00:51.826Z,102139.89
2018-06-27T16:03:18.817Z,102126.05
2018-06-27T16:05:45.802Z,102124.49
2018-06-27T16:08:13.446Z,102118.19
2018-06-27T16:10:40.505Z,102119.00
2018-06-27T16:13:07.497Z,102124.50
2018-06-27T16:15:34.521Z,102127.42
2018-06-27T16:18:01.532Z,102121.33
2018-06-27T16:20:28.578Z,102131.60
2018-06-27T16:22:55.553Z,102129.00
2018-06-27T16:25:22.565Z,102134.66
2018-06-27T16:27:49.545Z,102130.66
2018-06-27T16:30:16.545Z,102130.12
2018-06-27T16:32:43.538Z,102126.02
2018-06-27T16:35:10.537Z,102128.11
2018-06-27T16:37:37.537Z,102125.68
2018-06-27T16:40:04.530Z,102122.66
2018-06-27T16:42:31.521Z,102129.73
2018-06-27T16:44:58.490Z,102127.27
2018-06-27T16:47:25.486Z,102131.34
2018-06-27T16:49:52.534Z,102136.75
2018-06-27T16:52:19.530Z,102129.04
2018-06-27T16:54:46.616Z,102133.17
2018-06-27T16:57:13.687Z,102144.00
2018-06-27T16:59:40.638Z,102141.42
2018-06-27T17:02:07.650Z,102135.13
2018-06-27T17:04:34.798Z,102133.73
2018-06-27T17:07:01.807Z,102128.89
2018-06-27T17:09:28.762Z,102139.84
2018-06-27T17:11:55.745Z,102136.45
2018-06-27T17:14:22.709Z,102143.95
2018-06-27T17:16:49.705Z,102148.14
2018-06-27T17:19:16.737Z,102141.42
2018-06-27T17:21:43.745Z,102143.90
2018-06-27T17:24:10.737Z,102146.45
2018-06-27T17:26:37.737Z,102146.33
2018-06-27T17:29:04.761Z,102147.49
2018-06-27T17:31:31.775Z,102150.10
2018-06-27T17:33:58.770Z,102151.39
2018-06-27T17:36:25.809Z,102152.97
2018-06-27T17:38:52.810Z,102154.64
2018-06-27T17:41:19.814Z,102158.34
2018-06-27T17:43:46.878Z,102157.45
2018-06-27T17:46:13.938Z,102165.45
2018-06-27T17:48:41.090Z,102164.87
2018-06-27T17:51:08.080Z,102154.84
2018-06-27T17:53:35.078Z,102158.29
2018-06-27T17:56:02.050Z,102152.25
2018-06-27T17:58:29.053Z,102157.25
2018-06-27T18:00:56.090Z,102154.61
2018-06-27T18:03:23.153Z,102159.01
2018-06-27T18:05:50.114Z,102156.58
2018-06-27T18:08:17.121Z,102164.08
2018-06-27T18:10:44.090Z,102165.72
2018-06-27T18:13:11.078Z,102158.30
2018-06-27T18:15:38.118Z,102169.03
2018-06-27T18:18:05.105Z,102165.76
2018-06-27T18:20:34.274Z,102161.77
2018-06-27T18:23:08.561Z,102160.62
2018-06-27T18:25:35.561Z,102168.73
2018-06-27T18:28:02.597Z,102160.41
2018-06-27T18:30:29.590Z,102156.39
2018-06-27T18:32:56.746Z,102166.22
2018-06-27T18:35:23.930Z,102173.06
2018-06-27T18:37:50.933Z,102166.00
2018-06-27T18:40:17.955Z,102180.05
2018-06-27T18:42:44.978Z,102179.35
2018-06-27T18:45:11.904Z,102176.27
2018-06-27T18:47:38.942Z,102177.67
2018-06-27T18:50:05.953Z,102179.59
2018-06-27T18:52:32.930Z,102185.78
2018-06-27T18:54:59.934Z,102192.24
2018-06-27T18:57:26.943Z,102193.69
2018-06-27T18:59:53.977Z,102187.74
2018-06-27T19:02:20.997Z,102183.45
2018-06-27T19:04:47.958Z,102186.27
2018-06-27T19:07:14.961Z,102185.48
2018-06-27T19:09:41.970Z,102188.73
2018-06-27T19:12:08.950Z,102195.27
2018-06-27T19:14:35.914Z,102193.14
2018-06-27T19:17:02.921Z,102194.55
2018-06-27T19:19:30.199Z,102190.91
2018-06-27T19:21:57.182Z,102190.63
2018-06-27T19:24:24.151Z,102200.83
2018-06-27T19:26:51.130Z,102197.68
2018-06-27T19:29:18.110Z,102195.72
2018-06-27T19:31:45.229Z,102195.73
2018-06-27T19:34:12.213Z,102205.09
2018-06-27T19:36:39.209Z,102210.61
2018-06-27T19:39:08.480Z,102209.95
2018-06-27T19:41:35.702Z,102213.16
2018-06-27T19:44:02.864Z,102209.16
2018-06-27T19:46:29.830Z,102220.16
2018-06-27T19:48:56.817Z,102217.84
2018-06-27T19:51:23.799Z,102220.67
2018-06-27T19:53:51.353Z,102228.34
2018-06-27T19:56:18.330Z,102224.19
2018-06-27T19:58:45.354Z,102225.02
2018-06-27T20:01:12.329Z,102225.67
2018-06-27T20:03:39.362Z,102232.64
2018-06-27T20:06:06.380Z,102224.31
2018-06-27T20:08:33.371Z,102227.63
2018-06-27T20:11:00.337Z,102228.30
2018-06-27T20:13:27.670Z,102228.45
2018-06-27T20:15:55.362Z,102234.77
2018-06-27T20:18:22.278Z,102231.09
2018-06-27T20:20:49.306Z,102232.57
2018-06-27T20:23:16.282Z,102236.22
2018-06-27T20:25:43.294Z,102240.39
2018-06-27T20:28:10.299Z,102235.34
2018-06-27T20:30:37.301Z,102237.34
2018-06-27T20:33:04.542Z,102233.98
2018-06-27T20:35:31.510Z,102235.62
2018-06-27T20:37:58.492Z,102237.89
2018-06-27T20:40:25.469Z,102238.38
2018-06-27T20:42:52.486Z,102240.52
2018-06-27T20:45:19.473Z,102242.19
2018-06-27T20:47:46.446Z,102242.81
2018-06-27T20:50:13.694Z,102243.12
2018-06-27T20:52:40.758Z,102245.42
2018-06-27T20:55:07.773Z,102245.23
2018-06-27T20:57:34.910Z,102248.20
2018-06-27T21:00:01.979Z,102247.84
2018-06-27T21:02:28.933Z,102249.16
2018-06-27T21:04:55.929Z,102250.62
2018-06-27T21:07:22.886Z,102245.28
2018-06-27T21:09:50.017Z,102253.57
2018-06-27T21:12:17.011Z,102249.88
2018-06-27T21:14:44.031Z,102254.03
2018-06-27T21:17:11.022Z,102259.30
2018-06-27T21:19:38.058Z,102253.28
2018-06-27T21:22:05.379Z,102262.71
2018-06-27T21:24:32.371Z,102260.48
2018-06-27T21:26:59.446Z,102263.77
2018-06-27T21:29:26.497Z,102265.56
2018-06-27T21:31:53.826Z,102267.55
2018-06-27T21:34:20.865Z,102267.84
2018-06-27T21:36:47.894Z,102269.64
2018-06-27T21:39:14.897Z,102276.27
2018-06-27T21:41:41.886Z,102275.72
2018-06-27T21:44:08.886Z,102275.70
2018-06-27T21:46:35.873Z,102276.83
2018-06-27T21:49:02.915Z,102279.59
2018-06-27T21:51:29.926Z,102276.06
2018-06-27T21:53:56.881Z,102279.51
2018-06-27T21:56:23.878Z,102279.48
2018-06-27T21:58:50.845Z,102276.27
2018-06-27T22:01:18.047Z,102285.54
2018-06-27T22:03:45.051Z,102283.17
2018-06-27T22:06:12.053Z,102284.31
2018-06-27T22:08:39.030Z,102285.61
2018-06-27T22:11:06.026Z,102288.55
2018-06-27T22:13:33.022Z,102285.86
2018-06-27T22:16:00.048Z,102284.95
2018-06-27T22:18:27.091Z,102288.42
2018-06-27T22:20:54.093Z,102286.66
2018-06-27T22:23:21.179Z,102292.27
2018-06-27T22:25:48.167Z,102292.22
2018-06-27T22:28:15.146Z,102288.05
2018-06-27T22:30:42.177Z,102289.81
2018-06-27T22:33:09.169Z,102298.20
2018-06-27T22:35:36.374Z,102296.67
2018-06-27T22:38:03.489Z,102296.83
2018-06-27T22:40:30.521Z,102297.95
2018-06-27T22:42:57.489Z,102303.22
2018-06-27T22:45:24.491Z,102304.95
2018-06-27T22:47:51.539Z,102301.42
2018-06-27T22:50:18.553Z,102310.98
2018-06-27T22:52:45.541Z,102304.03
2018-06-27T22:55:12.574Z,102303.83
2018-06-27T22:57:39.564Z,102312.07
2018-06-27T23:00:06.886Z,102308.24
2018-06-27T23:02:33.957Z,102311.02
2018-06-27T23:05:00.959Z,102310.70
2018-06-27T23:07:27.965Z,102306.64
2018-06-27T23:09:54.965Z,102312.42
2018-06-27T23:12:21.937Z,102311.73
2018-06-27T23:14:48.989Z,102314.06
2018-06-27T23:17:16.033Z,102313.70
2018-06-27T23:19:43.193Z,102314.83
2018-06-27T23:22:49.993Z,102310.80
2018-06-27T23:25:17.008Z,102305.28
2018-06-27T23:27:44.507Z,102307.25
2018-06-27T23:30:11.534Z,102299.90
2018-06-27T23:32:39.097Z,102313.32
2018-06-27T23:35:06.206Z,102299.48
2018-06-27T23:37:33.221Z,102301.45
2018-06-27T23:40:00.633Z,102305.58
2018-06-27T23:42:27.669Z,102296.42
2018-06-27T23:44:54.701Z,102297.91
2018-06-27T23:47:21.773Z,102290.70
2018-06-27T23:49:48.763Z,102277.70
2018-06-27T23:52:15.866Z,102296.61
2018-06-27T23:54:42.881Z,102297.41
2018-06-27T23:57:09.921Z,102296.84
2018-06-27T23:59:36.902Z,102300.77
